createdAt,value
2023-01-03T00:03:04.184Z,0.50
2023-01-03T00:08:05.952Z,0.50
2023-01-03T00:13:07.889Z,0.50
2023-01-03T00:18:09.684Z,0.80
2023-01-03T00:23:11.560Z,0.70
2023-01-03T00:28:13.314Z,0.63
2023-01-03T00:33:15.270Z,0.45
2023-01-03T00:38:17.027Z,0.60
2023-01-03T00:43:30.690Z,0.50
2023-01-03T00:48:33.163Z,0.55
2023-01-03T00:53:36.333Z,0.68
2023-01-03T00:58:38.871Z,0.60
2023-01-03T01:03:44.968Z,0.63
2023-01-03T01:08:48.277Z,0.47
2023-01-03T01:13:50.978Z,0.90
2023-01-03T01:18:53.924Z,0.50
2023-01-03T01:23:56.524Z,0.68
2023-01-03T01:28:58.720Z,0.60
2023-01-03T01:34:00.628Z,0.70
2023-01-03T01:39:05.677Z,0.60
2023-01-03T01:44:45.731Z,0.60
2023-01-03T01:49:52.425Z,0.80
2023-01-03T01:54:55.732Z,0.80
2023-01-03T01:59:58.349Z,0.60
2023-01-03T02:05:02.266Z,0.80
2023-01-03T02:10:04.744Z,0.70
2023-01-03T02:15:22.421Z,0.65
2023-01-03T02:20:51.019Z,0.57
2023-01-03T02:31:26.577Z,0.80
2023-01-03T02:36:47.532Z,0.50
2023-01-03T02:42:18.961Z,0.68
2023-01-03T02:47:25.417Z,0.73
2023-01-03T02:52:30.776Z,0.50
2023-01-03T02:57:41.138Z,0.70
2023-01-03T03:02:52.093Z,0.65
2023-01-03T03:07:54.110Z,0.60
2023-01-03T03:13:13.409Z,0.77
2023-01-03T03:18:29.606Z,0.60
2023-01-03T03:23:53.839Z,0.70
2023-01-03T03:29:01.922Z,0.50
2023-01-03T03:34:11.585Z,0.60
2023-01-03T03:39:34.109Z,0.60
2023-01-03T03:45:02.020Z,0.80
2023-01-03T03:50:32.827Z,0.60
2023-01-03T03:55:49.821Z,0.55
2023-01-03T04:00:53.282Z,0.40
2023-01-03T04:06:25.958Z,0.80
2023-01-03T04:11:27.822Z,0.50
2023-01-03T04:16:29.617Z,0.60
2023-01-03T04:21:31.515Z,0.70
2023-01-03T04:26:33.330Z,0.38
2023-01-03T04:31:35.420Z,0.40
2023-01-03T04:36:37.252Z,0.63
2023-01-03T04:41:39.085Z,0.50
2023-01-03T04:46:41.033Z,0.50
2023-01-03T04:51:42.907Z,0.60
2023-01-03T04:56:44.987Z,0.88
2023-01-03T05:01:52.633Z,0.55
2023-01-03T05:06:55.610Z,0.40
2023-01-03T05:11:57.597Z,0.57
2023-01-03T05:16:59.526Z,0.60
2023-01-03T05:22:20.352Z,0.52
2023-01-03T05:27:22.791Z,0.60
2023-01-03T05:32:25.256Z,0.90
2023-01-03T05:37:27.289Z,0.60
2023-01-03T05:42:29.181Z,0.98
2023-01-03T05:47:31.097Z,0.60
2023-01-03T05:52:33.394Z,0.70
2023-01-03T05:57:35.802Z,0.40
2023-01-03T06:02:37.991Z,0.73
2023-01-03T06:07:42.937Z,0.47
2023-01-03T06:12:44.896Z,0.88
2023-01-03T06:17:57.778Z,0.77
2023-01-03T06:22:59.929Z,0.77
2023-01-03T06:28:01.734Z,1.13
2023-01-03T06:33:04.160Z,0.80
2023-01-03T06:38:06.417Z,0.90
2023-01-03T06:43:08.197Z,0.80
2023-01-03T06:48:29.258Z,1.27
2023-01-03T06:53:37.112Z,0.98
2023-01-03T06:58:38.942Z,0.93
2023-01-03T07:03:40.746Z,0.90
2023-01-03T07:08:47.811Z,0.70
2023-01-03T07:13:59.777Z,0.77
2023-01-03T07:19:02.663Z,0.90
2023-01-03T07:24:06.073Z,0.80
2023-01-03T07:29:09.886Z,1.30
2023-01-03T07:34:11.671Z,1.20
2023-01-03T07:39:13.562Z,0.93
2023-01-03T07:44:15.620Z,1.27
2023-01-03T07:49:17.471Z,1.35
2023-01-03T07:54:19.388Z,1.00
2023-01-03T07:59:21.288Z,1.40
2023-01-03T08:04:23.189Z,1.52
2023-01-03T08:09:43.753Z,0.90
2023-01-03T08:14:45.600Z,1.15
2023-01-03T08:19:47.476Z,1.10
2023-01-03T08:24:49.308Z,1.30
2023-01-03T08:29:51.372Z,1.35
2023-01-03T08:34:54.530Z,1.08
2023-01-03T08:40:02.420Z,1.08
2023-01-03T08:45:09.234Z,0.90
2023-01-03T08:50:12.189Z,0.80
2023-01-03T08:55:14.135Z,1.10
2023-01-03T09:00:16.284Z,1.10
2023-01-03T09:05:18.383Z,1.05
2023-01-03T09:10:20.408Z,1.08
2023-01-03T09:15:22.361Z,1.15
2023-01-03T09:20:24.093Z,0.93
2023-01-03T09:25:25.914Z,1.23
2023-01-03T09:30:27.807Z,1.00
2023-01-03T09:35:29.681Z,1.15
2023-01-03T09:40:36.283Z,1.08
2023-01-03T09:45:39.879Z,1.20
2023-01-03T09:51:15.786Z,1.00
2023-01-03T09:56:29.911Z,1.02
2023-01-03T10:02:17.879Z,0.95
2023-01-03T10:07:28.826Z,1.00
2023-01-03T10:12:33.305Z,1.38
2023-01-03T10:18:08.440Z,0.95
2023-01-03T10:23:11.594Z,1.02
2023-01-03T10:28:20.289Z,0.70
2023-01-03T10:33:31.149Z,0.68
2023-01-03T10:38:38.422Z,1.25
2023-01-03T10:43:55.994Z,1.00
2023-01-03T10:49:28.365Z,0.85
2023-01-03T10:54:54.900Z,1.30
2023-01-03T10:59:56.880Z,1.08
2023-01-03T11:05:16.625Z,0.80
2023-01-03T11:10:19.042Z,0.65
2023-01-03T11:15:38.291Z,0.93
2023-01-03T11:20:59.578Z,0.73
2023-01-03T11:26:14.612Z,0.95
2023-01-03T11:31:43.971Z,0.90
2023-01-03T11:37:10.024Z,0.82
2023-01-03T11:42:32.774Z,1.00
2023-01-03T11:47:56.210Z,0.82
2023-01-03T11:53:29.787Z,0.80
2023-01-03T11:58:51.868Z,0.88
2023-01-03T12:03:56.317Z,0.60
2023-01-03T12:09:17.166Z,0.68
2023-01-03T12:14:27.676Z,0.77
2023-01-03T12:19:33.805Z,0.47
2023-01-03T12:24:49.024Z,0.70
2023-01-03T12:29:59.450Z,1.02
2023-01-03T12:35:41.293Z,0.75
2023-01-03T12:40:59.588Z,1.00
2023-01-03T12:51:32.928Z,0.70
2023-01-03T12:56:34.724Z,0.93
2023-01-03T13:02:07.599Z,1.13
2023-01-03T13:07:26.417Z,0.52
2023-01-03T13:12:31.689Z,0.68
2023-01-03T13:17:45.783Z,0.75
2023-01-03T13:22:53.559Z,0.70
2023-01-03T13:28:30.676Z,0.65
2023-01-03T13:34:02.882Z,0.90
2023-01-03T13:39:34.681Z,0.60
2023-01-03T13:44:36.662Z,0.77
2023-01-03T13:49:39.048Z,0.73
2023-01-03T13:54:58.467Z,0.50
2023-01-03T14:00:05.144Z,0.80
2023-01-03T14:06:05.568Z,0.80
2023-01-03T14:11:33.065Z,0.73
2023-01-03T14:16:54.016Z,0.80
2023-01-03T14:22:20.934Z,1.08
2023-01-03T14:27:41.573Z,0.57
2023-01-03T14:32:43.579Z,1.00
2023-01-03T14:37:46.682Z,0.60
2023-01-03T14:42:48.648Z,0.60
2023-01-03T14:47:54.791Z,0.73
2023-01-03T14:53:02.999Z,0.73
2023-01-03T14:58:30.980Z,0.68
2023-01-03T15:03:43.317Z,0.70
2023-01-03T15:08:48.995Z,0.80
2023-01-03T15:13:55.795Z,0.77
2023-01-03T15:19:24.874Z,0.93
2023-01-03T15:24:26.871Z,0.70
2023-01-03T15:29:44.555Z,1.00
2023-01-03T15:34:49.905Z,1.33
2023-01-03T15:39:56.972Z,1.10
2023-01-03T15:44:59.481Z,1.07
2023-01-03T15:50:03.948Z,1.50
2023-01-03T15:55:06.277Z,1.00
2023-01-03T16:00:15.545Z,0.75
2023-01-03T16:05:21.988Z,1.02
2023-01-03T16:10:25.167Z,0.97
2023-01-03T16:15:27.395Z,1.10
2023-01-03T16:20:29.897Z,0.85
2023-01-03T16:25:31.756Z,1.20
2023-01-03T16:30:33.874Z,1.65
2023-01-03T16:35:36.074Z,1.42
2023-01-03T16:40:37.910Z,1.65
2023-01-03T16:45:47.034Z,1.92
2023-01-03T16:50:54.027Z,2.75
2023-01-03T16:55:56.450Z,2.47
2023-01-03T17:00:58.648Z,2.63
2023-01-03T17:06:01.052Z,1.63
2023-01-03T17:11:04.773Z,1.70
2023-01-03T17:16:14.942Z,1.77
2023-01-03T17:21:34.274Z,1.60
2023-01-03T17:26:36.301Z,2.33
2023-01-03T17:31:38.062Z,2.17
2023-01-03T17:36:40.598Z,2.17
2023-01-03T17:42:00.783Z,1.92
2023-01-03T17:47:39.453Z,2.33
2023-01-03T17:52:41.811Z,2.17
2023-01-03T17:57:44.030Z,1.60
2023-01-03T18:02:46.490Z,1.95
2023-01-03T18:07:48.933Z,2.30
2023-01-03T18:12:50.913Z,2.28
2023-01-03T18:17:53.012Z,1.65
2023-01-03T18:22:54.983Z,2.00
2023-01-03T18:28:02.197Z,1.52
2023-01-03T18:33:04.316Z,2.00
2023-01-03T18:38:06.343Z,2.45
2023-01-03T18:43:13.786Z,2.55
2023-01-03T18:48:21.561Z,2.10
2023-01-03T18:53:25.760Z,2.10
2023-01-03T18:58:35.387Z,1.52
2023-01-03T19:03:39.873Z,1.83
2023-01-03T19:08:42.039Z,1.50
2023-01-03T19:13:55.148Z,1.60
2023-01-03T19:18:57.681Z,1.60
2023-01-03T19:24:01.801Z,1.63
2023-01-03T19:29:06.991Z,1.70
2023-01-03T19:34:20.248Z,1.90
2023-01-03T19:39:25.901Z,1.30
2023-01-03T19:44:28.788Z,1.70
2023-01-03T19:49:30.673Z,1.58
2023-01-03T19:54:32.528Z,1.60
2023-01-03T19:59:37.709Z,1.85
2023-01-03T20:04:39.666Z,1.45
2023-01-03T20:09:41.654Z,1.42
2023-01-03T20:14:47.512Z,2.13
2023-01-03T20:19:49.819Z,1.40
2023-01-03T20:24:51.655Z,1.80
2023-01-03T20:29:54.500Z,1.55
2023-01-03T20:34:56.545Z,2.58
2023-01-03T20:39:58.365Z,2.33
2023-01-03T20:45:00.406Z,2.92
2023-01-03T20:50:02.184Z,1.70
2023-01-03T20:55:04.121Z,1.42
2023-01-03T21:00:06.561Z,1.67
2023-01-03T21:05:09.639Z,2.20
2023-01-03T21:10:25.278Z,2.03
2023-01-03T21:15:27.210Z,2.00
2023-01-03T21:20:30.588Z,3.28
2023-01-03T21:25:35.152Z,1.65
2023-01-03T21:30:38.455Z,1.60
2023-01-03T21:35:41.215Z,1.20
2023-01-03T21:40:43.285Z,1.35
2023-01-03T21:45:47.802Z,1.42
2023-01-03T21:50:52.335Z,1.83
2023-01-03T21:55:54.122Z,1.80
2023-01-03T22:00:56.347Z,1.38
2023-01-03T22:06:11.060Z,1.35
2023-01-03T22:11:13.310Z,1.40
2023-01-03T22:16:16.827Z,1.17
2023-01-03T22:21:19.081Z,2.10
2023-01-03T22:26:21.020Z,3.00
2023-01-03T22:31:23.117Z,2.30
2023-01-03T22:36:25.022Z,1.85
2023-01-03T22:41:26.886Z,1.42
2023-01-03T22:46:28.861Z,0.85
2023-01-03T22:51:30.645Z,1.33
2023-01-03T22:56:32.396Z,1.30
2023-01-03T23:01:34.343Z,1.70
2023-01-03T23:06:36.414Z,0.88
2023-01-03T23:11:56.981Z,1.30
2023-01-03T23:17:19.711Z,1.20
2023-01-03T23:22:21.599Z,1.30
2023-01-03T23:27:27.544Z,1.58
2023-01-03T23:32:29.393Z,3.03
2023-01-03T23:37:31.176Z,1.42
2023-01-03T23:42:33.110Z,1.00
2023-01-03T23:47:35.143Z,1.80
2023-01-03T23:52:37.011Z,2.20
2023-01-03T23:57:39.819Z,1.42
